Hooglede, Belgium
Current Conditions -  °F | °C
As of 3:50 PM on Wednesday 22 Oct 2014 (Local Time) from EBOS Reporting Station
Few Clouds Few Clouds  
Wind Chill: 55°   Ceiling: Unl
Heat Index: 55°   Visibility: 6mi
Dew Point: 43°   Wind: 15mph
Humidity: 63%   Direction: 310°NW
Pressure: 30.21"   Gusts: NA
Location:  50.98°N, 3.08°E
Report Text: EBOS 221350Z 31013KT 9999 FEW030 13/06 Q1023 NOSIG
Loading
Personal Weather Stations






























Interactive Weather Map
Tropical Storm Tracking
New forecast layout! Learn more

10-Day Weather Forecast

Advertisements
Track Severe Weather on mobile